Terminal Aerodrome Forecast
Issued by NWS State College, PA

Home | Current Version | Previous Version | Text Only | Print | Product List | Glossary On
Versions: 1 2 3 4 5 6 7 8 9 10 11 12 13 14 15 16 17 18 19 20 21 22 23 24 25 26 27 28 29
000
FTUS41 KCTP 271722
TAFIPT
TAF
KIPT 271722Z 2718/2818 08008KT P6SM OVC016
      TEMPO 2718/2719 SCT016 BKN035
     FM271900 13010G15KT P6SM SCT050
     FM280100 16010G20KT 5SM -TSRA OVC050CB
     FM280300 27005KT P6SM OVC035
     FM280900 28005KT 5SM BR OVC015
     FM281300 27006KT 6SM BR BKN050=

USA.gov is the U.S. government's official web portal to all federal, state and local government web resources and services.